sensor_id;sensor_type;location;lat;lon;timestamp;temperature;humidity
55203;DHT22;41077;52.956;6.796;2023-03-14T00:01:20;10.30;99.90
55203;DHT22;41077;52.956;6.796;2023-03-14T00:03:46;10.30;99.90
55203;DHT22;41077;52.956;6.796;2023-03-14T00:06:13;10.40;99.90
55203;DHT22;41077;52.956;6.796;2023-03-14T00:08:40;10.40;99.90
55203;DHT22;41077;52.956;6.796;2023-03-14T00:11:09;10.40;99.90
55203;DHT22;41077;52.956;6.796;2023-03-14T00:13:35;10.40;99.90
55203;DHT22;41077;52.956;6.796;2023-03-14T00:16:03;10.40;99.90
55203;DHT22;41077;52.956;6.796;2023-03-14T00:18:29;10.50;99.90
55203;DHT22;41077;52.956;6.796;2023-03-14T00:20:58;10.60;99.90
55203;DHT22;41077;52.956;6.796;2023-03-14T00:23:23;10.60;99.90
55203;DHT22;41077;52.956;6.796;2023-03-14T00:25:49;10.60;99.90
55203;DHT22;41077;52.956;6.796;2023-03-14T00:28:15;10.70;99.90
55203;DHT22;41077;52.956;6.796;2023-03-14T00:30:40;10.70;99.90
55203;DHT22;41077;52.956;6.796;2023-03-14T00:33:06;10.70;99.90
55203;DHT22;41077;52.956;6.796;2023-03-14T00:35:32;10.70;99.90
55203;DHT22;41077;52.956;6.796;2023-03-14T00:37:57;10.70;99.90
55203;DHT22;41077;52.956;6.796;2023-03-14T00:40:23;10.60;99.90
55203;DHT22;41077;52.956;6.796;2023-03-14T00:42:48;10.70;99.90
55203;DHT22;41077;52.956;6.796;2023-03-14T00:45:14;10.70;99.90
55203;DHT22;41077;52.956;6.796;2023-03-14T00:47:40;10.70;99.90
55203;DHT22;41077;52.956;6.796;2023-03-14T00:50:06;10.70;99.90
55203;DHT22;41077;52.956;6.796;2023-03-14T00:52:32;10.60;99.90
55203;DHT22;41077;52.956;6.796;2023-03-14T00:54:57;10.60;99.90
55203;DHT22;41077;52.956;6.796;2023-03-14T00:57:23;10.60;99.90
55203;DHT22;41077;52.956;6.796;2023-03-14T00:59:50;10.60;99.90
55203;DHT22;41077;52.956;6.796;2023-03-14T01:02:17;10.60;99.90
55203;DHT22;41077;52.956;6.796;2023-03-14T01:04:42;10.60;99.90
55203;DHT22;41077;52.956;6.796;2023-03-14T01:07:08;10.60;99.90
55203;DHT22;41077;52.956;6.796;2023-03-14T01:09:34;10.70;99.90
55203;DHT22;41077;52.956;6.796;2023-03-14T01:12:00;10.80;99.90
55203;DHT22;41077;52.956;6.796;2023-03-14T01:14:25;10.70;99.90
55203;DHT22;41077;52.956;6.796;2023-03-14T01:16:51;10.80;99.90
55203;DHT22;41077;52.956;6.796;2023-03-14T01:19:17;10.80;99.90
55203;DHT22;41077;52.956;6.796;2023-03-14T01:21:42;10.90;99.90
55203;DHT22;41077;52.956;6.796;2023-03-14T01:24:11;10.90;99.90
55203;DHT22;41077;52.956;6.796;2023-03-14T01:26:36;11.00;99.90
55203;DHT22;41077;52.956;6.796;2023-03-14T01:29:02;11.00;99.90
55203;DHT22;41077;52.956;6.796;2023-03-14T01:31:28;11.00;99.90
55203;DHT22;41077;52.956;6.796;2023-03-14T01:33:54;11.00;99.90
55203;DHT22;41077;52.956;6.796;2023-03-14T01:36:20;10.90;99.90
55203;DHT22;41077;52.956;6.796;2023-03-14T01:38:46;11.00;99.90
55203;DHT22;41077;52.956;6.796;2023-03-14T01:41:16;11.00;99.90
55203;DHT22;41077;52.956;6.796;2023-03-14T01:43:42;11.10;99.90
55203;DHT22;41077;52.956;6.796;2023-03-14T01:46:26;11.10;99.90
55203;DHT22;41077;52.956;6.796;2023-03-14T01:49:11;11.00;99.90
55203;DHT22;41077;52.956;6.796;2023-03-14T01:52:02;11.10;99.90
55203;DHT22;41077;52.956;6.796;2023-03-14T01:57:26;11.20;99.90
55203;DHT22;41077;52.956;6.796;2023-03-14T02:00:09;11.10;99.90
55203;DHT22;41077;52.956;6.796;2023-03-14T02:02:54;11.20;99.90
55203;DHT22;41077;52.956;6.796;2023-03-14T02:05:26;11.20;99.90
55203;DHT22;41077;52.956;6.796;2023-03-14T02:07:59;11.10;99.90
55203;DHT22;41077;52.956;6.796;2023-03-14T02:10:28;11.10;99.90
55203;DHT22;41077;52.956;6.796;2023-03-14T02:12:56;11.10;99.90
55203;DHT22;41077;52.956;6.796;2023-03-14T02:15:24;11.10;99.90
55203;DHT22;41077;52.956;6.796;2023-03-14T02:17:50;11.10;99.90
55203;DHT22;41077;52.956;6.796;2023-03-14T02:23:02;11.10;99.90
55203;DHT22;41077;52.956;6.796;2023-03-14T02:26:06;11.10;99.90
55203;DHT22;41077;52.956;6.796;2023-03-14T02:28:33;11.10;99.90
55203;DHT22;41077;52.956;6.796;2023-03-14T02:30:59;11.10;99.90
55203;DHT22;41077;52.956;6.796;2023-03-14T02:33:24;11.10;99.90
55203;DHT22;41077;52.956;6.796;2023-03-14T02:35:55;11.10;99.90
55203;DHT22;41077;52.956;6.796;2023-03-14T02:38:39;11.00;99.90
55203;DHT22;41077;52.956;6.796;2023-03-14T02:41:07;10.90;99.90
55203;DHT22;41077;52.956;6.796;2023-03-14T02:43:33;10.90;99.90
55203;DHT22;41077;52.956;6.796;2023-03-14T02:46:00;10.80;99.90
55203;DHT22;41077;52.956;6.796;2023-03-14T02:48:30;10.90;99.90
55203;DHT22;41077;52.956;6.796;2023-03-14T02:50:58;10.90;99.90
55203;DHT22;41077;52.956;6.796;2023-03-14T02:53:33;10.90;99.90
55203;DHT22;41077;52.956;6.796;2023-03-14T02:55:59;10.90;99.90
55203;DHT22;41077;52.956;6.796;2023-03-14T02:58:26;10.90;99.90
55203;DHT22;41077;52.956;6.796;2023-03-14T03:00:52;10.80;99.90
55203;DHT22;41077;52.956;6.796;2023-03-14T03:03:18;10.80;99.90
55203;DHT22;41077;52.956;6.796;2023-03-14T03:05:51;10.90;99.90
55203;DHT22;41077;52.956;6.796;2023-03-14T03:08:19;10.90;99.90
55203;DHT22;41077;52.956;6.796;2023-03-14T03:10:45;10.90;99.90
55203;DHT22;41077;52.956;6.796;2023-03-14T03:13:10;10.80;99.90
55203;DHT22;41077;52.956;6.796;2023-03-14T03:15:36;10.90;99.90
55203;DHT22;41077;52.956;6.796;2023-03-14T03:18:02;10.70;99.90
55203;DHT22;41077;52.956;6.796;2023-03-14T03:20:28;10.80;99.90
55203;DHT22;41077;52.956;6.796;2023-03-14T03:22:53;10.70;99.90
55203;DHT22;41077;52.956;6.796;2023-03-14T03:25:19;10.70;99.90
55203;DHT22;41077;52.956;6.796;2023-03-14T03:27:45;10.70;99.90
55203;DHT22;41077;52.956;6.796;2023-03-14T03:30:11;10.60;99.90
55203;DHT22;41077;52.956;6.796;2023-03-14T03:32:37;10.60;99.90
55203;DHT22;41077;52.956;6.796;2023-03-14T03:35:03;10.60;99.90
55203;DHT22;41077;52.956;6.796;2023-03-14T03:37:33;10.50;99.90
55203;DHT22;41077;52.956;6.796;2023-03-14T03:39:59;10.60;99.90
55203;DHT22;41077;52.956;6.796;2023-03-14T03:42:27;10.40;99.90
55203;DHT22;41077;52.956;6.796;2023-03-14T03:44:53;10.40;99.90
55203;DHT22;41077;52.956;6.796;2023-03-14T03:47:18;10.50;99.90
55203;DHT22;41077;52.956;6.796;2023-03-14T03:49:44;10.50;99.90
55203;DHT22;41077;52.956;6.796;2023-03-14T03:52:10;10.40;99.90
55203;DHT22;41077;52.956;6.796;2023-03-14T03:54:36;10.40;99.90
55203;DHT22;41077;52.956;6.796;2023-03-14T03:57:01;10.40;99.90
55203;DHT22;41077;52.956;6.796;2023-03-14T03:59:27;10.30;99.90
55203;DHT22;41077;52.956;6.796;2023-03-14T04:01:53;10.30;99.90
55203;DHT22;41077;52.956;6.796;2023-03-14T04:04:18;10.30;99.90
55203;DHT22;41077;52.956;6.796;2023-03-14T04:06:44;10.30;99.90
55203;DHT22;41077;52.956;6.796;2023-03-14T04:09:10;10.30;99.90
55203;DHT22;41077;52.956;6.796;2023-03-14T04:11:36;10.30;99.90
55203;DHT22;41077;52.956;6.796;2023-03-14T04:14:03;10.30;99.90
55203;DHT22;41077;52.956;6.796;2023-03-14T04:16:29;10.30;99.90
55203;DHT22;41077;52.956;6.796;2023-03-14T04:18:57;10.20;99.90
55203;DHT22;41077;52.956;6.796;2023-03-14T04:21:23;10.20;99.90
55203;DHT22;41077;52.956;6.796;2023-03-14T04:23:49;10.10;99.90
55203;DHT22;41077;52.956;6.796;2023-03-14T04:26:15;10.00;99.90
55203;DHT22;41077;52.956;6.796;2023-03-14T04:28:40;10.00;99.90
55203;DHT22;41077;52.956;6.796;2023-03-14T04:31:10;9.90;99.90
55203;DHT22;41077;52.956;6.796;2023-03-14T04:33:36;9.90;99.90
55203;DHT22;41077;52.956;6.796;2023-03-14T04:36:03;9.80;99.90
55203;DHT22;41077;52.956;6.796;2023-03-14T04:38:29;9.90;99.90
55203;DHT22;41077;52.956;6.796;2023-03-14T04:40:55;9.90;99.90
55203;DHT22;41077;52.956;6.796;2023-03-14T04:43:21;9.80;99.90
55203;DHT22;41077;52.956;6.796;2023-03-14T04:45:46;9.90;99.90
55203;DHT22;41077;52.956;6.796;2023-03-14T04:48:12;10.00;99.90
55203;DHT22;41077;52.956;6.796;2023-03-14T04:50:38;9.90;99.90
55203;DHT22;41077;52.956;6.796;2023-03-14T04:53:04;9.90;99.90
55203;DHT22;41077;52.956;6.796;2023-03-14T04:55:31;9.90;99.90
55203;DHT22;41077;52.956;6.796;2023-03-14T04:57:58;9.80;99.90
55203;DHT22;41077;52.956;6.796;2023-03-14T05:00:24;9.80;99.90
55203;DHT22;41077;52.956;6.796;2023-03-14T05:02:50;9.80;99.90
55203;DHT22;41077;52.956;6.796;2023-03-14T05:05:15;9.80;99.90
55203;DHT22;41077;52.956;6.796;2023-03-14T05:07:41;9.70;99.90
55203;DHT22;41077;52.956;6.796;2023-03-14T05:10:08;9.70;99.90
55203;DHT22;41077;52.956;6.796;2023-03-14T05:12:34;9.60;99.90
55203;DHT22;41077;52.956;6.796;2023-03-14T05:14:59;9.70;99.90
55203;DHT22;41077;52.956;6.796;2023-03-14T05:17:25;9.70;99.90
55203;DHT22;41077;52.956;6.796;2023-03-14T05:19:51;9.60;99.90
55203;DHT22;41077;52.956;6.796;2023-03-14T05:22:16;9.60;99.90
55203;DHT22;41077;52.956;6.796;2023-03-14T05:24:42;9.70;99.90
55203;DHT22;41077;52.956;6.796;2023-03-14T05:27:08;9.60;99.90
55203;DHT22;41077;52.956;6.796;2023-03-14T05:29:33;9.60;99.90
55203;DHT22;41077;52.956;6.796;2023-03-14T05:31:59;9.60;99.90
55203;DHT22;41077;52.956;6.796;2023-03-14T05:34:25;9.60;99.90
55203;DHT22;41077;52.956;6.796;2023-03-14T05:36:50;9.70;99.90
55203;DHT22;41077;52.956;6.796;2023-03-14T05:39:16;9.70;99.90
55203;DHT22;41077;52.956;6.796;2023-03-14T05:41:42;9.70;99.90
55203;DHT22;41077;52.956;6.796;2023-03-14T05:44:07;9.70;99.90
55203;DHT22;41077;52.956;6.796;2023-03-14T05:46:33;9.70;99.90
55203;DHT22;41077;52.956;6.796;2023-03-14T05:48:59;9.70;99.90
55203;DHT22;41077;52.956;6.796;2023-03-14T05:51:25;9.70;99.90
55203;DHT22;41077;52.956;6.796;2023-03-14T05:53:51;9.70;99.90
55203;DHT22;41077;52.956;6.796;2023-03-14T05:56:16;9.60;99.90
55203;DHT22;41077;52.956;6.796;2023-03-14T05:58:42;9.50;99.90
55203;DHT22;41077;52.956;6.796;2023-03-14T06:01:08;9.50;99.90
55203;DHT22;41077;52.956;6.796;2023-03-14T06:03:34;9.40;99.90
55203;DHT22;41077;52.956;6.796;2023-03-14T06:06:00;9.40;99.90
55203;DHT22;41077;52.956;6.796;2023-03-14T06:08:26;9.40;99.90
55203;DHT22;41077;52.956;6.796;2023-03-14T06:10:52;9.30;99.90
55203;DHT22;41077;52.956;6.796;2023-03-14T06:13:18;9.40;99.90
55203;DHT22;41077;52.956;6.796;2023-03-14T06:15:44;9.30;99.90
55203;DHT22;41077;52.956;6.796;2023-03-14T06:18:10;9.30;99.90
55203;DHT22;41077;52.956;6.796;2023-03-14T06:20:37;9.40;99.90
55203;DHT22;41077;52.956;6.796;2023-03-14T06:23:05;9.40;99.90
55203;DHT22;41077;52.956;6.796;2023-03-14T06:25:32;9.30;99.90
55203;DHT22;41077;52.956;6.796;2023-03-14T06:27:58;9.20;99.90
55203;DHT22;41077;52.956;6.796;2023-03-14T06:30:23;9.30;99.90
55203;DHT22;41077;52.956;6.796;2023-03-14T06:32:49;9.30;99.90
55203;DHT22;41077;52.956;6.796;2023-03-14T06:35:15;9.30;99.90
55203;DHT22;41077;52.956;6.796;2023-03-14T06:37:41;9.20;99.90
55203;DHT22;41077;52.956;6.796;2023-03-14T06:40:11;9.30;99.90
55203;DHT22;41077;52.956;6.796;2023-03-14T06:42:39;9.30;99.90
55203;DHT22;41077;52.956;6.796;2023-03-14T06:45:05;9.40;99.90
55203;DHT22;41077;52.956;6.796;2023-03-14T06:47:31;9.40;99.90
55203;DHT22;41077;52.956;6.796;2023-03-14T06:49:57;9.40;99.90
55203;DHT22;41077;52.956;6.796;2023-03-14T06:52:22;9.40;99.90
55203;DHT22;41077;52.956;6.796;2023-03-14T06:54:48;9.40;99.90
55203;DHT22;41077;52.956;6.796;2023-03-14T06:57:13;9.30;99.90
55203;DHT22;41077;52.956;6.796;2023-03-14T06:59:39;9.30;99.90
55203;DHT22;41077;52.956;6.796;2023-03-14T07:02:10;9.30;99.90
55203;DHT22;41077;52.956;6.796;2023-03-14T07:04:36;9.30;99.90
55203;DHT22;41077;52.956;6.796;2023-03-14T07:07:01;9.40;99.90
55203;DHT22;41077;52.956;6.796;2023-03-14T07:09:27;9.30;99.90
55203;DHT22;41077;52.956;6.796;2023-03-14T07:11:53;9.20;99.90
55203;DHT22;41077;52.956;6.796;2023-03-14T07:14:18;9.20;99.90
55203;DHT22;41077;52.956;6.796;2023-03-14T07:16:44;9.20;99.90
55203;DHT22;41077;52.956;6.796;2023-03-14T07:19:10;9.20;99.90
55203;DHT22;41077;52.956;6.796;2023-03-14T07:21:36;9.10;99.90
55203;DHT22;41077;52.956;6.796;2023-03-14T07:24:02;9.10;99.90
55203;DHT22;41077;52.956;6.796;2023-03-14T07:26:28;9.10;99.90
55203;DHT22;41077;52.956;6.796;2023-03-14T07:28:53;8.80;99.90
55203;DHT22;41077;52.956;6.796;2023-03-14T07:31:19;8.40;99.90
55203;DHT22;41077;52.956;6.796;2023-03-14T07:33:45;8.00;99.90
55203;DHT22;41077;52.956;6.796;2023-03-14T07:36:10;7.70;99.90
55203;DHT22;41077;52.956;6.796;2023-03-14T07:38:36;7.50;99.90
55203;DHT22;41077;52.956;6.796;2023-03-14T07:41:04;7.30;99.90
55203;DHT22;41077;52.956;6.796;2023-03-14T07:43:30;7.10;99.90
55203;DHT22;41077;52.956;6.796;2023-03-14T07:45:56;7.00;99.90
55203;DHT22;41077;52.956;6.796;2023-03-14T07:48:21;6.80;99.90
55203;DHT22;41077;52.956;6.796;2023-03-14T07:50:53;6.60;99.90
55203;DHT22;41077;52.956;6.796;2023-03-14T07:53:20;6.40;99.90
55203;DHT22;41077;52.956;6.796;2023-03-14T07:55:46;6.20;99.90
55203;DHT22;41077;52.956;6.796;2023-03-14T07:58:12;6.00;99.90
55203;DHT22;41077;52.956;6.796;2023-03-14T08:00:38;5.90;99.90
55203;DHT22;41077;52.956;6.796;2023-03-14T08:03:04;5.60;99.90
55203;DHT22;41077;52.956;6.796;2023-03-14T08:05:29;5.50;99.90
55203;DHT22;41077;52.956;6.796;2023-03-14T08:07:55;5.30;99.90
55203;DHT22;41077;52.956;6.796;2023-03-14T08:10:21;5.20;99.90
55203;DHT22;41077;52.956;6.796;2023-03-14T08:12:54;5.10;99.90
55203;DHT22;41077;52.956;6.796;2023-03-14T08:15:20;5.00;99.90
55203;DHT22;41077;52.956;6.796;2023-03-14T08:17:46;5.00;99.90
55203;DHT22;41077;52.956;6.796;2023-03-14T08:20:23;4.90;99.90
55203;DHT22;41077;52.956;6.796;2023-03-14T08:22:49;4.90;99.90
55203;DHT22;41077;52.956;6.796;2023-03-14T08:25:15;4.90;99.90
55203;DHT22;41077;52.956;6.796;2023-03-14T08:27:42;4.80;99.90
55203;DHT22;41077;52.956;6.796;2023-03-14T08:30:13;4.80;99.90
55203;DHT22;41077;52.956;6.796;2023-03-14T08:32:39;4.80;99.90
55203;DHT22;41077;52.956;6.796;2023-03-14T08:35:06;4.70;99.90
55203;DHT22;41077;52.956;6.796;2023-03-14T08:37:33;4.80;99.90
55203;DHT22;41077;52.956;6.796;2023-03-14T08:39:59;4.80;99.90
55203;DHT22;41077;52.956;6.796;2023-03-14T08:42:24;4.80;99.90
55203;DHT22;41077;52.956;6.796;2023-03-14T08:44:51;4.80;99.90
55203;DHT22;41077;52.956;6.796;2023-03-14T08:47:17;4.80;99.90
55203;DHT22;41077;52.956;6.796;2023-03-14T08:49:43;4.90;99.90
55203;DHT22;41077;52.956;6.796;2023-03-14T08:52:09;4.90;99.90
55203;DHT22;41077;52.956;6.796;2023-03-14T08:54:34;4.90;99.90
55203;DHT22;41077;52.956;6.796;2023-03-14T08:57:00;5.00;99.90
55203;DHT22;41077;52.956;6.796;2023-03-14T08:59:26;4.90;99.90
55203;DHT22;41077;52.956;6.796;2023-03-14T09:01:51;5.00;99.90
55203;DHT22;41077;52.956;6.796;2023-03-14T09:04:17;5.00;99.90
55203;DHT22;41077;52.956;6.796;2023-03-14T09:06:43;5.10;99.90
55203;DHT22;41077;52.956;6.796;2023-03-14T09:09:09;5.10;99.90
55203;DHT22;41077;52.956;6.796;2023-03-14T09:11:35;5.20;99.90
55203;DHT22;41077;52.956;6.796;2023-03-14T09:14:00;5.20;99.90
55203;DHT22;41077;52.956;6.796;2023-03-14T09:16:26;5.20;99.90
55203;DHT22;41077;52.956;6.796;2023-03-14T09:18:52;5.30;99.90
55203;DHT22;41077;52.956;6.796;2023-03-14T09:21:23;5.40;99.90
55203;DHT22;41077;52.956;6.796;2023-03-14T09:23:48;5.50;99.90
55203;DHT22;41077;52.956;6.796;2023-03-14T09:26:14;5.50;99.90
55203;DHT22;41077;52.956;6.796;2023-03-14T09:28:40;5.50;99.90
55203;DHT22;41077;52.956;6.796;2023-03-14T09:31:10;5.60;99.90
55203;DHT22;41077;52.956;6.796;2023-03-14T09:33:36;5.70;99.90
55203;DHT22;41077;52.956;6.796;2023-03-14T09:36:03;5.70;99.90
55203;DHT22;41077;52.956;6.796;2023-03-14T09:38:29;5.80;99.90
55203;DHT22;41077;52.956;6.796;2023-03-14T09:40:57;5.90;99.90
55203;DHT22;41077;52.956;6.796;2023-03-14T09:43:24;6.00;99.90
55203;DHT22;41077;52.956;6.796;2023-03-14T09:45:51;6.10;99.90
55203;DHT22;41077;52.956;6.796;2023-03-14T09:48:21;6.30;99.90
55203;DHT22;41077;52.956;6.796;2023-03-14T09:50:53;6.40;99.90
55203;DHT22;41077;52.956;6.796;2023-03-14T09:53:25;6.40;99.90
55203;DHT22;41077;52.956;6.796;2023-03-14T09:55:51;6.40;99.90
55203;DHT22;41077;52.956;6.796;2023-03-14T09:58:23;6.40;99.90
55203;DHT22;41077;52.956;6.796;2023-03-14T10:00:52;6.40;99.90
55203;DHT22;41077;52.956;6.796;2023-03-14T10:03:34;6.30;99.90
55203;DHT22;41077;52.956;6.796;2023-03-14T10:06:00;6.30;99.90
55203;DHT22;41077;52.956;6.796;2023-03-14T10:08:26;6.30;99.90
55203;DHT22;41077;52.956;6.796;2023-03-14T10:10:52;6.30;99.90
55203;DHT22;41077;52.956;6.796;2023-03-14T10:13:27;6.20;99.90
55203;DHT22;41077;52.956;6.796;2023-03-14T10:16:04;6.20;99.90
55203;DHT22;41077;52.956;6.796;2023-03-14T10:18:33;6.20;99.90
55203;DHT22;41077;52.956;6.796;2023-03-14T10:21:17;6.20;99.90
55203;DHT22;41077;52.956;6.796;2023-03-14T10:23:44;6.10;99.90
55203;DHT22;41077;52.956;6.796;2023-03-14T10:26:15;6.10;99.90
55203;DHT22;41077;52.956;6.796;2023-03-14T10:28:53;6.10;99.90
55203;DHT22;41077;52.956;6.796;2023-03-14T10:31:24;6.20;99.90
55203;DHT22;41077;52.956;6.796;2023-03-14T10:34:01;6.20;99.90
55203;DHT22;41077;52.956;6.796;2023-03-14T10:36:29;6.30;99.90
55203;DHT22;41077;52.956;6.796;2023-03-14T10:41:54;6.30;99.90
55203;DHT22;41077;52.956;6.796;2023-03-14T10:44:24;6.30;99.90
55203;DHT22;41077;52.956;6.796;2023-03-14T10:47:00;6.30;99.90
55203;DHT22;41077;52.956;6.796;2023-03-14T10:49:34;6.30;99.90
55203;DHT22;41077;52.956;6.796;2023-03-14T10:54:54;6.30;99.90
55203;DHT22;41077;52.956;6.796;2023-03-14T10:57:20;6.40;99.90
55203;DHT22;41077;52.956;6.796;2023-03-14T10:59:46;6.50;99.90
55203;DHT22;41077;52.956;6.796;2023-03-14T11:05:21;6.60;99.90
55203;DHT22;41077;52.956;6.796;2023-03-14T11:07:54;6.70;99.90
55203;DHT22;41077;52.956;6.796;2023-03-14T11:10:34;6.90;99.90
55203;DHT22;41077;52.956;6.796;2023-03-14T11:15:57;6.90;99.90
55203;DHT22;41077;52.956;6.796;2023-03-14T11:21:04;6.90;99.90
55203;DHT22;41077;52.956;6.796;2023-03-14T11:26:25;7.00;99.90
55203;DHT22;41077;52.956;6.796;2023-03-14T11:28:57;7.00;99.90
55203;DHT22;41077;52.956;6.796;2023-03-14T11:31:27;7.10;99.90
55203;DHT22;41077;52.956;6.796;2023-03-14T11:34:02;7.00;99.90
55203;DHT22;41077;52.956;6.796;2023-03-14T11:36:39;7.00;99.90
55203;DHT22;41077;52.956;6.796;2023-03-14T11:39:16;7.10;99.90
55203;DHT22;41077;52.956;6.796;2023-03-14T11:41:52;7.00;99.90
55203;DHT22;41077;52.956;6.796;2023-03-14T11:44:23;7.20;99.90
55203;DHT22;41077;52.956;6.796;2023-03-14T11:46:59;7.20;99.90
55203;DHT22;41077;52.956;6.796;2023-03-14T11:52:00;7.40;99.90
55203;DHT22;41077;52.956;6.796;2023-03-14T11:54:55;7.60;99.90
55203;DHT22;41077;52.956;6.796;2023-03-14T11:57:22;7.50;99.90
55203;DHT22;41077;52.956;6.796;2023-03-14T12:00:26;7.40;99.90
55203;DHT22;41077;52.956;6.796;2023-03-14T12:02:59;7.30;99.90
55203;DHT22;41077;52.956;6.796;2023-03-14T12:08:25;7.30;99.90
55203;DHT22;41077;52.956;6.796;2023-03-14T12:10:59;7.40;99.90
55203;DHT22;41077;52.956;6.796;2023-03-14T12:13:32;7.60;99.90
55203;DHT22;41077;52.956;6.796;2023-03-14T12:16:00;7.80;99.90
55203;DHT22;41077;52.956;6.796;2023-03-14T12:18:37;7.80;98.50
55203;DHT22;41077;52.956;6.796;2023-03-14T12:21:10;7.70;98.10
55203;DHT22;41077;52.956;6.796;2023-03-14T12:23:52;8.00;99.00
55203;DHT22;41077;52.956;6.796;2023-03-14T12:26:20;8.20;95.30
55203;DHT22;41077;52.956;6.796;2023-03-14T12:50:12;8.10;94.00
55203;DHT22;41077;52.956;6.796;2023-03-14T12:55:18;7.80;96.10
55203;DHT22;41077;52.956;6.796;2023-03-14T12:58:28;7.70;96.50
55203;DHT22;41077;52.956;6.796;2023-03-14T13:01:00;7.70;96.90
55203;DHT22;41077;52.956;6.796;2023-03-14T13:03:37;7.60;97.10
55203;DHT22;41077;52.956;6.796;2023-03-14T13:06:04;7.50;98.50
55203;DHT22;41077;52.956;6.796;2023-03-14T13:10:58;7.90;99.90
55203;DHT22;41077;52.956;6.796;2023-03-14T13:13:26;8.30;97.90
55203;DHT22;41077;52.956;6.796;2023-03-14T13:16:00;8.70;97.70
55203;DHT22;41077;52.956;6.796;2023-03-14T13:18:44;9.20;94.80
55203;DHT22;41077;52.956;6.796;2023-03-14T13:21:34;9.30;92.90
55203;DHT22;41077;52.956;6.796;2023-03-14T13:24:06;8.90;93.60
55203;DHT22;41077;52.956;6.796;2023-03-14T13:26:37;8.60;94.40
55203;DHT22;41077;52.956;6.796;2023-03-14T13:29:25;8.50;95.70
55203;DHT22;41077;52.956;6.796;2023-03-14T13:31:57;8.60;96.60
55203;DHT22;41077;52.956;6.796;2023-03-14T13:34:31;8.40;96.20
55203;DHT22;41077;52.956;6.796;2023-03-14T13:36:58;8.10;96.00
55203;DHT22;41077;52.956;6.796;2023-03-14T13:39:26;8.00;97.30
55203;DHT22;41077;52.956;6.796;2023-03-14T13:42:03;7.70;97.40
55203;DHT22;41077;52.956;6.796;2023-03-14T13:44:38;7.50;98.30
55203;DHT22;41077;52.956;6.796;2023-03-14T13:47:09;7.40;98.90
55203;DHT22;41077;52.956;6.796;2023-03-14T13:49:37;7.30;99.80
55203;DHT22;41077;52.956;6.796;2023-03-14T13:52:04;7.30;98.60
55203;DHT22;41077;52.956;6.796;2023-03-14T13:54:46;7.40;97.50
55203;DHT22;41077;52.956;6.796;2023-03-14T13:57:11;7.50;96.50
55203;DHT22;41077;52.956;6.796;2023-03-14T13:59:37;7.70;95.60
55203;DHT22;41077;52.956;6.796;2023-03-14T14:02:14;7.90;93.80
55203;DHT22;41077;52.956;6.796;2023-03-14T14:04:40;8.00;92.50
55203;DHT22;41077;52.956;6.796;2023-03-14T14:07:08;8.00;93.70
55203;DHT22;41077;52.956;6.796;2023-03-14T14:09:43;8.40;92.50
55203;DHT22;41077;52.956;6.796;2023-03-14T14:15:18;9.50;88.40
55203;DHT22;41077;52.956;6.796;2023-03-14T14:17:51;9.70;85.60
55203;DHT22;41077;52.956;6.796;2023-03-14T14:20:33;9.60;88.20
55203;DHT22;41077;52.956;6.796;2023-03-14T14:23:24;10.10;89.60
55203;DHT22;41077;52.956;6.796;2023-03-14T14:25:55;10.90;83.40
55203;DHT22;41077;52.956;6.796;2023-03-14T14:31:04;11.40;78.70
55203;DHT22;41077;52.956;6.796;2023-03-14T14:33:42;11.40;80.60
55203;DHT22;41077;52.956;6.796;2023-03-14T14:36:25;11.60;80.20
55203;DHT22;41077;52.956;6.796;2023-03-14T14:39:02;11.40;76.90
55203;DHT22;41077;52.956;6.796;2023-03-14T14:41:32;10.80;78.70
55203;DHT22;41077;52.956;6.796;2023-03-14T14:44:00;10.40;78.20
55203;DHT22;41077;52.956;6.796;2023-03-14T14:46:30;10.40;81.30
55203;DHT22;41077;52.956;6.796;2023-03-14T14:49:01;10.60;75.80
55203;DHT22;41077;52.956;6.796;2023-03-14T14:51:32;10.20;76.30
55203;DHT22;41077;52.956;6.796;2023-03-14T14:54:04;9.80;77.50
55203;DHT22;41077;52.956;6.796;2023-03-14T14:56:35;9.50;78.30
55203;DHT22;41077;52.956;6.796;2023-03-14T14:59:03;9.10;77.20
55203;DHT22;41077;52.956;6.796;2023-03-14T15:01:36;8.70;81.10
55203;DHT22;41077;52.956;6.796;2023-03-14T15:04:11;8.30;83.50
55203;DHT22;41077;52.956;6.796;2023-03-14T15:06:39;8.10;85.60
55203;DHT22;41077;52.956;6.796;2023-03-14T15:09:05;7.80;86.10
55203;DHT22;41077;52.956;6.796;2023-03-14T15:11:31;7.60;88.80
55203;DHT22;41077;52.956;6.796;2023-03-14T15:13:57;7.40;89.90
55203;DHT22;41077;52.956;6.796;2023-03-14T15:16:28;7.30;91.40
55203;DHT22;41077;52.956;6.796;2023-03-14T15:18:57;7.20;93.30
55203;DHT22;41077;52.956;6.796;2023-03-14T15:21:24;7.10;93.80
55203;DHT22;41077;52.956;6.796;2023-03-14T15:23:50;7.00;95.30
55203;DHT22;41077;52.956;6.796;2023-03-14T15:26:18;7.00;95.60
55203;DHT22;41077;52.956;6.796;2023-03-14T15:28:45;6.90;96.20
55203;DHT22;41077;52.956;6.796;2023-03-14T15:31:12;6.80;97.50
55203;DHT22;41077;52.956;6.796;2023-03-14T15:33:38;6.70;97.10
55203;DHT22;41077;52.956;6.796;2023-03-14T15:36:05;6.60;97.40
55203;DHT22;41077;52.956;6.796;2023-03-14T15:38:31;6.80;97.90
55203;DHT22;41077;52.956;6.796;2023-03-14T15:40:57;7.30;97.70
55203;DHT22;41077;52.956;6.796;2023-03-14T15:43:23;8.10;98.00
55203;DHT22;41077;52.956;6.796;2023-03-14T15:45:49;8.90;96.20
55203;DHT22;41077;52.956;6.796;2023-03-14T15:48:20;9.00;95.00
55203;DHT22;41077;52.956;6.796;2023-03-14T15:50:46;8.80;92.90
55203;DHT22;41077;52.956;6.796;2023-03-14T15:53:13;8.60;93.20
55203;DHT22;41077;52.956;6.796;2023-03-14T15:55:38;8.60;93.50
55203;DHT22;41077;52.956;6.796;2023-03-14T15:58:04;8.90;91.70
55203;DHT22;41077;52.956;6.796;2023-03-14T16:00:30;8.80;92.80
55203;DHT22;41077;52.956;6.796;2023-03-14T16:02:56;8.90;92.50
55203;DHT22;41077;52.956;6.796;2023-03-14T16:05:21;9.00;91.90
55203;DHT22;41077;52.956;6.796;2023-03-14T16:07:48;8.70;91.80
55203;DHT22;41077;52.956;6.796;2023-03-14T16:10:14;8.30;92.60
55203;DHT22;41077;52.956;6.796;2023-03-14T16:12:41;8.00;93.70
55203;DHT22;41077;52.956;6.796;2023-03-14T16:15:07;7.80;94.50
55203;DHT22;41077;52.956;6.796;2023-03-14T16:17:34;7.60;95.00
55203;DHT22;41077;52.956;6.796;2023-03-14T16:20:00;7.40;95.30
55203;DHT22;41077;52.956;6.796;2023-03-14T16:22:25;7.30;94.00
55203;DHT22;41077;52.956;6.796;2023-03-14T16:24:52;7.10;94.00
55203;DHT22;41077;52.956;6.796;2023-03-14T16:27:17;6.90;94.20
55203;DHT22;41077;52.956;6.796;2023-03-14T16:29:43;6.90;93.10
55203;DHT22;41077;52.956;6.796;2023-03-14T16:32:09;6.70;93.40
55203;DHT22;41077;52.956;6.796;2023-03-14T16:34:38;6.60;92.90
55203;DHT22;41077;52.956;6.796;2023-03-14T16:37:04;6.50;92.70
55203;DHT22;41077;52.956;6.796;2023-03-14T16:39:30;6.30;93.20
55203;DHT22;41077;52.956;6.796;2023-03-14T16:41:57;6.20;94.30
55203;DHT22;41077;52.956;6.796;2023-03-14T16:44:23;6.20;94.40
55203;DHT22;41077;52.956;6.796;2023-03-14T16:46:49;6.20;95.50
55203;DHT22;41077;52.956;6.796;2023-03-14T16:49:15;5.80;97.70
55203;DHT22;41077;52.956;6.796;2023-03-14T16:51:41;5.60;99.90